createdAt,value
2024-04-04T00:02:21.896Z,100250.34
2024-04-04T00:05:07.584Z,100248.89
2024-04-04T00:07:34.214Z,100251.73
2024-04-04T00:10:01.648Z,100259.98
2024-04-04T00:12:28.537Z,100263.54
2024-04-04T00:14:55.227Z,100261.15
2024-04-04T00:17:21.989Z,100261.95
2024-04-04T00:19:48.806Z,100258.71
2024-04-04T00:22:15.478Z,100259.11
2024-04-04T00:24:42.703Z,100260.23
2024-04-04T00:27:16.777Z,100258.83
2024-04-04T00:29:44.349Z,100255.41
2024-04-04T00:32:11.002Z,100251.44
2024-04-04T00:34:37.717Z,100250.67
2024-04-04T00:37:07.236Z,100250.21
2024-04-04T00:39:33.880Z,100251.21
2024-04-04T00:42:00.593Z,100250.46
2024-04-04T00:44:27.512Z,100250.44
2024-04-04T00:46:54.114Z,100252.52
2024-04-04T00:49:21.741Z,100253.75
2024-04-04T00:51:49.083Z,100253.06
2024-04-04T00:54:15.965Z,100254.67
2024-04-04T00:56:42.537Z,100257.70
2024-04-04T00:59:13.541Z,100253.25
2024-04-04T01:01:43.075Z,100248.80
2024-04-04T01:04:11.630Z,100245.82
2024-04-04T01:06:40.115Z,100244.20
2024-04-04T01:09:06.860Z,100239.51
2024-04-04T01:11:33.520Z,100244.13
2024-04-04T01:14:00.552Z,100243.36
2024-04-04T01:16:27.187Z,100244.50
2024-04-04T01:18:53.902Z,100244.04
2024-04-04T01:21:20.717Z,100248.83
2024-04-04T01:23:47.332Z,100249.64
2024-04-04T01:26:15.002Z,100252.38
2024-04-04T01:28:41.613Z,100249.00
2024-04-04T01:31:08.445Z,100249.52
2024-04-04T01:33:35.092Z,100249.08
2024-04-04T01:36:01.787Z,100247.77
2024-04-04T01:38:28.550Z,100249.39
2024-04-04T01:40:55.346Z,100252.63
2024-04-04T01:43:22.347Z,100256.56
2024-04-04T01:45:49.102Z,100256.66
2024-04-04T01:48:15.797Z,100260.77
2024-04-04T01:50:42.605Z,100258.21
2024-04-04T01:53:09.409Z,100257.88
2024-04-04T01:55:35.942Z,100257.60
2024-04-04T01:58:02.767Z,100258.47
2024-04-04T02:00:29.359Z,100260.92
2024-04-04T02:02:56.439Z,100254.98
2024-04-04T02:05:23.290Z,100257.23
2024-04-04T02:07:49.899Z,100257.23
2024-04-04T02:10:16.843Z,100253.42
2024-04-04T02:12:43.477Z,100252.59
2024-04-04T02:15:11.233Z,100255.52
2024-04-04T02:17:37.952Z,100257.40
2024-04-04T02:20:11.021Z,100258.66
2024-04-04T02:22:38.461Z,100257.65
2024-04-04T02:25:09.982Z,100255.39
2024-04-04T02:27:37.360Z,100250.95
2024-04-04T02:30:04.631Z,100247.69
2024-04-04T02:32:31.400Z,100254.67
2024-04-04T02:34:58.340Z,100252.77
2024-04-04T02:37:25.130Z,100250.53
2024-04-04T02:39:51.830Z,100250.36
2024-04-04T02:42:19.408Z,100248.30
2024-04-04T02:44:46.223Z,100245.84
2024-04-04T02:47:12.810Z,100242.70
2024-04-04T02:49:39.417Z,100239.73
2024-04-04T02:52:06.332Z,100240.27
2024-04-04T02:54:32.975Z,100238.20
2024-04-04T02:56:59.656Z,100240.67
2024-04-04T02:59:26.676Z,100237.23
2024-04-04T03:01:53.274Z,100236.41
2024-04-04T03:04:19.877Z,100236.96
2024-04-04T03:06:46.493Z,100235.93
2024-04-04T03:09:13.661Z,100236.14
2024-04-04T03:11:40.249Z,100232.02
2024-04-04T03:14:06.800Z,100230.14
2024-04-04T03:16:36.281Z,100235.59
2024-04-04T03:19:02.998Z,100230.23
2024-04-04T03:21:29.622Z,100234.27
2024-04-04T03:23:56.906Z,100239.35
2024-04-04T03:26:24.090Z,100241.59
2024-04-04T03:28:50.685Z,100243.87
2024-04-04T03:31:17.460Z,100252.23
2024-04-04T03:33:44.096Z,100252.73
2024-04-04T03:36:10.739Z,100255.00
2024-04-04T03:38:37.427Z,100259.38
2024-04-04T03:41:04.287Z,100263.40
2024-04-04T03:43:30.888Z,100260.11
2024-04-04T03:46:05.228Z,100266.01
2024-04-04T03:48:34.231Z,100264.36
2024-04-04T03:51:01.566Z,100259.06
2024-04-04T03:53:29.039Z,100259.66
2024-04-04T03:55:55.721Z,100257.29
2024-04-04T03:58:27.955Z,100258.39
2024-04-04T04:00:54.979Z,100258.45
2024-04-04T04:03:21.663Z,100261.81
2024-04-04T04:05:48.615Z,100262.92
2024-04-04T04:08:16.676Z,100267.80
2024-04-04T04:10:43.351Z,100264.48
2024-04-04T04:13:09.998Z,100265.70
2024-04-04T04:15:36.601Z,100267.98
2024-04-04T04:18:03.371Z,100258.36
2024-04-04T04:20:48.807Z,100257.09
2024-04-04T04:23:15.633Z,100258.51
2024-04-04T04:25:42.475Z,100258.65
2024-04-04T04:28:09.090Z,100259.52
2024-04-04T04:30:36.044Z,100261.58
2024-04-04T04:33:02.997Z,100257.34
2024-04-04T04:35:29.664Z,100260.09
2024-04-04T04:37:56.317Z,100259.52
2024-04-04T04:40:22.972Z,100261.36
2024-04-04T04:42:49.637Z,100260.30
2024-04-04T04:45:17.048Z,100258.80
2024-04-04T04:47:44.398Z,100259.98
2024-04-04T04:50:10.988Z,100259.23
2024-04-04T04:52:37.646Z,100255.16
2024-04-04T04:55:06.276Z,100257.88
2024-04-04T04:57:33.010Z,100260.69
2024-04-04T04:59:59.845Z,100255.70
2024-04-04T05:02:26.539Z,100255.91
2024-04-04T05:04:53.213Z,100255.34
2024-04-04T05:07:19.868Z,100254.63
2024-04-04T05:09:46.568Z,100253.55
2024-04-04T05:12:13.451Z,100252.19
2024-04-04T05:14:40.064Z,100253.48
2024-04-04T05:17:06.727Z,100252.15
2024-04-04T05:19:34.895Z,100253.03
2024-04-04T05:22:01.514Z,100250.62
2024-04-04T05:24:28.251Z,100247.61
2024-04-04T05:26:55.053Z,100257.81
2024-04-04T05:29:21.762Z,100262.23
2024-04-04T05:31:48.487Z,100271.56
2024-04-04T05:34:16.731Z,100276.42
2024-04-04T05:36:43.937Z,100278.66
2024-04-04T05:39:10.724Z,100274.59
2024-04-04T05:41:37.374Z,100272.63
2024-04-04T05:44:04.694Z,100274.60
2024-04-04T05:46:31.302Z,100272.92
2024-04-04T05:48:58.057Z,100278.16
2024-04-04T05:51:26.473Z,100280.17
2024-04-04T05:53:53.211Z,100278.91
2024-04-04T05:56:22.738Z,100284.63
2024-04-04T05:59:08.304Z,100281.60
2024-04-04T06:01:35.179Z,100285.42
2024-04-04T06:04:01.942Z,100279.86
2024-04-04T06:06:28.713Z,100275.95
2024-04-04T06:08:56.785Z,100271.58
2024-04-04T06:11:27.934Z,100268.94
2024-04-04T06:13:54.640Z,100272.77
2024-04-04T06:16:21.428Z,100275.04
2024-04-04T06:18:48.582Z,100272.95
2024-04-04T06:21:15.826Z,100273.11
2024-04-04T06:23:50.078Z,100270.88
2024-04-04T06:26:18.644Z,100270.23
2024-04-04T06:28:47.894Z,100269.94
2024-04-04T06:31:16.600Z,100270.90
2024-04-04T06:33:45.779Z,100276.30
2024-04-04T06:36:12.896Z,100272.33
2024-04-04T06:38:40.689Z,100271.31
2024-04-04T06:41:07.474Z,100269.54
2024-04-04T06:43:35.759Z,100270.86
2024-04-04T06:46:02.999Z,100267.72
2024-04-04T06:48:29.749Z,100264.17
2024-04-04T06:50:56.714Z,100266.25
2024-04-04T06:53:27.178Z,100264.48
2024-04-04T06:55:55.136Z,100264.79
2024-04-04T06:58:23.421Z,100265.98
2024-04-04T07:01:00.194Z,100267.65
2024-04-04T07:03:27.391Z,100269.05
2024-04-04T07:05:54.309Z,100272.60
2024-04-04T07:08:21.213Z,100273.60
2024-04-04T07:10:48.209Z,100272.15
2024-04-04T07:13:16.883Z,100273.65
2024-04-04T07:15:43.757Z,100278.88
2024-04-04T07:18:12.808Z,100283.73
2024-04-04T07:20:40.170Z,100280.80
2024-04-04T07:23:06.947Z,100275.67
2024-04-04T07:25:33.813Z,100274.73
2024-04-04T07:28:01.807Z,100282.39
2024-04-04T07:30:30.175Z,100280.40
2024-04-04T07:32:56.993Z,100282.23
2024-04-04T07:35:24.406Z,100278.30
2024-04-04T07:37:54.169Z,100279.58
2024-04-04T07:40:21.048Z,100278.16
2024-04-04T07:42:47.734Z,100281.33
2024-04-04T07:45:14.495Z,100282.69
2024-04-04T07:47:41.385Z,100282.48
2024-04-04T07:50:08.769Z,100283.19
2024-04-04T07:52:36.275Z,100279.70
2024-04-04T07:55:04.192Z,100275.64
2024-04-04T07:57:31.015Z,100277.73
2024-04-04T07:59:57.774Z,100276.77
2024-04-04T08:02:27.099Z,100281.41
2024-04-04T08:04:53.796Z,100278.54
2024-04-04T08:07:21.802Z,100273.48
2024-04-04T08:09:48.994Z,100271.82
2024-04-04T08:12:15.829Z,100270.23
2024-04-04T08:14:45.271Z,100268.99
2024-04-04T08:17:12.126Z,100271.12
2024-04-04T08:19:38.759Z,100268.73
2024-04-04T08:22:08.643Z,100271.71
2024-04-04T08:24:35.583Z,100267.00
2024-04-04T08:27:02.296Z,100267.02
2024-04-04T08:29:28.937Z,100266.02
2024-04-04T08:31:55.698Z,100266.07
2024-04-04T08:34:22.574Z,100263.93
2024-04-04T08:36:49.466Z,100261.59
2024-04-04T08:39:17.010Z,100263.61
2024-04-04T08:41:43.740Z,100265.48
2024-04-04T08:44:12.733Z,100269.98
2024-04-04T08:46:40.856Z,100269.93
2024-04-04T08:49:14.687Z,100265.85
2024-04-04T08:51:42.655Z,100267.33
2024-04-04T08:54:09.404Z,100264.22
2024-04-04T08:56:36.770Z,100255.06
2024-04-04T08:59:03.477Z,100256.56
2024-04-04T09:01:34.020Z,100256.67
2024-04-04T09:04:08.529Z,100257.61
2024-04-04T09:06:36.052Z,100256.84
2024-04-04T09:09:02.846Z,100257.73
2024-04-04T09:11:30.935Z,100252.87
2024-04-04T09:14:10.440Z,100251.69
2024-04-04T09:16:37.977Z,100250.28
2024-04-04T09:19:15.564Z,100249.30
2024-04-04T09:21:45.099Z,100251.16
2024-04-04T09:24:16.599Z,100250.41
2024-04-04T09:26:44.410Z,100246.33
2024-04-04T09:29:12.058Z,100246.63
2024-04-04T09:31:41.981Z,100241.08
2024-04-04T09:34:11.118Z,100239.19
2024-04-04T09:36:41.028Z,100239.27
2024-04-04T09:39:10.070Z,100238.44
2024-04-04T09:41:38.527Z,100237.19
2024-04-04T09:44:06.332Z,100234.33
2024-04-04T09:46:38.706Z,100226.09
2024-04-04T09:49:09.831Z,100220.23
2024-04-04T09:51:39.093Z,100215.06
2024-04-04T09:54:07.092Z,100217.56
2024-04-04T09:56:34.688Z,100221.25
2024-04-04T09:59:01.524Z,100221.11
2024-04-04T10:01:28.475Z,100222.82
2024-04-04T10:03:59.466Z,100226.23
2024-04-04T10:06:37.366Z,100232.13
2024-04-04T10:09:25.057Z,100229.27
2024-04-04T10:11:52.430Z,100234.08
2024-04-04T10:14:22.900Z,100229.34
2024-04-04T10:16:53.385Z,100229.30
2024-04-04T10:19:24.752Z,100227.93
2024-04-04T10:21:52.243Z,100227.33
2024-04-04T10:24:23.819Z,100222.08
2024-04-04T10:27:03.021Z,100219.33
2024-04-04T10:29:40.445Z,100212.90
2024-04-04T10:32:08.785Z,100210.06
2024-04-04T10:34:36.035Z,100213.52
2024-04-04T10:37:03.809Z,100215.58
2024-04-04T10:39:30.513Z,100217.55
2024-04-04T10:42:01.388Z,100212.77
2024-04-04T10:44:30.753Z,100212.36
2024-04-04T10:47:00.341Z,100210.18
2024-04-04T10:49:29.551Z,100212.23
2024-04-04T10:51:59.540Z,100217.20
2024-04-04T10:54:31.068Z,100216.52
2024-04-04T10:56:58.593Z,100213.30
2024-04-04T10:59:25.692Z,100213.60
2024-04-04T11:01:53.573Z,100211.26
2024-04-04T11:04:20.277Z,100209.86
2024-04-04T11:06:48.776Z,100207.64
2024-04-04T11:09:21.116Z,100204.83
2024-04-04T11:11:50.420Z,100194.87
2024-04-04T11:14:25.399Z,100190.09
2024-04-04T11:16:54.874Z,100187.73
2024-04-04T11:19:23.630Z,100181.58
2024-04-04T11:21:51.440Z,100187.06
2024-04-04T11:24:19.068Z,100182.70
2024-04-04T11:26:46.827Z,100179.58
2024-04-04T11:29:13.617Z,100182.70
2024-04-04T11:31:40.606Z,100181.39
2024-04-04T11:34:07.967Z,100177.56
2024-04-04T11:36:34.825Z,100177.42
2024-04-04T11:39:01.651Z,100173.12
2024-04-04T11:41:28.402Z,100173.80
2024-04-04T11:43:55.027Z,100171.14
2024-04-04T11:46:21.909Z,100167.44
2024-04-04T11:48:48.665Z,100169.56
2024-04-04T11:51:15.443Z,100164.41
2024-04-04T11:53:42.166Z,100161.77
2024-04-04T11:56:08.911Z,100161.73
2024-04-04T11:58:37.516Z,100157.52
2024-04-04T12:01:04.236Z,100160.86
2024-04-04T12:03:30.979Z,100162.38
2024-04-04T12:05:57.908Z,100158.06
2024-04-04T12:08:29.700Z,100155.73
2024-04-04T12:11:03.567Z,100152.63
2024-04-04T12:13:30.475Z,100151.27
2024-04-04T12:15:58.601Z,100149.37
2024-04-04T12:18:44.332Z,100150.21
2024-04-04T12:21:16.929Z,100144.98
2024-04-04T12:23:53.182Z,100141.63
2024-04-04T12:26:24.294Z,100133.45
2024-04-04T12:28:53.849Z,100135.60
2024-04-04T12:31:20.974Z,100133.71
2024-04-04T12:33:47.709Z,100136.36
2024-04-04T12:36:14.729Z,100135.31
2024-04-04T12:38:41.401Z,100133.73
2024-04-04T12:41:08.232Z,100129.98
2024-04-04T12:43:34.936Z,100128.44
2024-04-04T12:46:04.470Z,100125.92
2024-04-04T12:48:32.190Z,100126.42
2024-04-04T12:50:59.896Z,100123.08
2024-04-04T12:53:27.441Z,100122.96
2024-04-04T12:55:54.411Z,100120.11
2024-04-04T12:58:21.624Z,100122.41
2024-04-04T13:00:48.840Z,100122.02
2024-04-04T13:03:16.345Z,100120.38
2024-04-04T13:05:43.156Z,100118.82
2024-04-04T13:08:09.768Z,100119.05
2024-04-04T13:10:36.746Z,100120.05
2024-04-04T13:13:03.538Z,100116.67
2024-04-04T13:15:30.199Z,100119.98
2024-04-04T13:17:57.053Z,100119.19
2024-04-04T13:20:23.726Z,100118.23
2024-04-04T13:22:50.592Z,100112.77
2024-04-04T13:25:17.412Z,100108.28
2024-04-04T13:27:44.092Z,100105.59
2024-04-04T13:30:11.839Z,100100.75
2024-04-04T13:32:38.556Z,100095.70
2024-04-04T13:35:05.924Z,100090.23
2024-04-04T13:37:32.722Z,100086.04
2024-04-04T13:40:03.497Z,100083.02
2024-04-04T13:42:30.950Z,100080.75
2024-04-04T13:44:57.715Z,100078.90
2024-04-04T13:47:24.353Z,100075.83
2024-04-04T13:49:51.131Z,100072.71
2024-04-04T13:52:19.025Z,100080.49
2024-04-04T13:54:47.469Z,100078.63
2024-04-04T13:57:14.416Z,100080.23
2024-04-04T13:59:41.082Z,100075.14
2024-04-04T14:02:13.694Z,100074.02
2024-04-04T14:04:40.517Z,100074.70
2024-04-04T14:07:09.863Z,100072.51
2024-04-04T14:09:36.742Z,100078.16
2024-04-04T14:12:03.795Z,100075.44
2024-04-04T14:14:30.456Z,100080.61
2024-04-04T14:16:58.607Z,100077.29
2024-04-04T14:19:26.598Z,100078.44
2024-04-04T14:21:53.294Z,100078.86
2024-04-04T14:24:20.121Z,100073.18
2024-04-04T14:26:47.475Z,100068.23
2024-04-04T14:29:14.255Z,100067.09
2024-04-04T14:31:43.818Z,100064.56
2024-04-04T14:34:10.814Z,100061.08
2024-04-04T14:36:38.932Z,100058.13
2024-04-04T14:39:07.298Z,100052.76
2024-04-04T14:41:34.091Z,100050.48
2024-04-04T14:44:02.238Z,100048.02
2024-04-04T14:46:29.033Z,100041.73
2024-04-04T14:48:58.524Z,100038.23
2024-04-04T14:51:25.491Z,100037.85
2024-04-04T14:53:53.733Z,100035.71
2024-04-04T14:56:21.102Z,100033.43
2024-04-04T14:58:51.027Z,100031.35
2024-04-04T15:01:18.530Z,100030.66
2024-04-04T15:03:49.132Z,100028.98
2024-04-04T15:06:16.403Z,100026.26
2024-04-04T15:08:47.959Z,100026.02
2024-04-04T15:11:15.260Z,100022.79
2024-04-04T15:13:42.707Z,100023.77
2024-04-04T15:16:10.344Z,100023.87
2024-04-04T15:18:37.755Z,100022.66
2024-04-04T15:21:04.921Z,100027.10
2024-04-04T15:23:31.792Z,100027.52
2024-04-04T15:25:59.217Z,100028.28
2024-04-04T15:28:25.993Z,100024.63
2024-04-04T15:30:54.650Z,100022.20
2024-04-04T15:33:21.481Z,100019.09
2024-04-04T15:35:48.708Z,100017.89
2024-04-04T15:38:16.377Z,100014.11
2024-04-04T15:40:43.711Z,100007.52
2024-04-04T15:43:11.793Z,100010.26
2024-04-04T15:45:38.573Z,100009.36
2024-04-04T15:48:06.364Z,100010.63
2024-04-04T15:50:33.388Z,100006.66
2024-04-04T15:53:01.868Z,100007.84
2024-04-04T15:55:29.132Z,100011.23
2024-04-04T15:57:55.963Z,100009.44
2024-04-04T16:00:24.740Z,100006.64
2024-04-04T16:02:53.361Z,100003.78
2024-04-04T16:05:20.144Z,100005.63
2024-04-04T16:07:46.932Z,100009.87
2024-04-04T16:10:13.863Z,100014.45
2024-04-04T16:15:58.903Z,100007.19
2024-04-04T16:18:26.680Z,100005.77
2024-04-04T16:20:53.362Z,100011.08
2024-04-04T16:23:22.083Z,100012.66
2024-04-04T16:25:48.937Z,100013.14
2024-04-04T16:28:15.935Z,100017.08
2024-04-04T16:30:43.677Z,100015.41
2024-04-04T16:33:10.392Z,100013.47
2024-04-04T16:35:37.183Z,100014.89
2024-04-04T16:38:05.771Z,100014.20
2024-04-04T16:40:32.939Z,100015.10
2024-04-04T16:42:59.723Z,100016.60
2024-04-04T16:45:26.757Z,100015.75
2024-04-04T16:47:53.596Z,100019.54
2024-04-04T16:50:20.485Z,100022.06
2024-04-04T16:52:47.327Z,100022.86
2024-04-04T16:55:17.150Z,100024.26
2024-04-04T16:57:44.706Z,100026.52
2024-04-04T17:00:11.801Z,100027.23
2024-04-04T17:02:38.561Z,100025.48
2024-04-04T17:05:05.619Z,100025.27
2024-04-04T17:07:33.040Z,100033.80
2024-04-04T17:09:59.802Z,100031.83
2024-04-04T17:12:29.534Z,100035.67
2024-04-04T17:14:56.421Z,100041.25
2024-04-04T17:17:23.501Z,100038.36
2024-04-04T17:19:57.773Z,100035.23
2024-04-04T17:22:25.059Z,100041.77
2024-04-04T17:24:51.768Z,100036.81
2024-04-04T17:27:18.784Z,100040.52
2024-04-04T17:29:46.071Z,100037.88
2024-04-04T17:32:15.820Z,100042.40
2024-04-04T17:34:42.917Z,100037.71
2024-04-04T17:37:09.614Z,100042.20
2024-04-04T17:39:39.520Z,100041.22
2024-04-04T17:42:06.883Z,100038.02
2024-04-04T17:44:33.863Z,100040.05
2024-04-04T17:47:00.590Z,100035.66
2024-04-04T17:49:29.459Z,100038.30
2024-04-04T17:52:01.247Z,100034.50
2024-04-04T17:54:41.533Z,100035.80
2024-04-04T17:57:13.240Z,100038.24
2024-04-04T17:59:40.700Z,100029.33
2024-04-04T18:02:07.365Z,100026.64
2024-04-04T18:04:34.277Z,100027.83
2024-04-04T18:07:05.807Z,100026.95
2024-04-04T18:09:35.554Z,100031.13
2024-04-04T18:12:04.289Z,100027.67
2024-04-04T18:14:31.350Z,100025.05
2024-04-04T18:16:58.429Z,100023.17
2024-04-04T18:19:25.319Z,100023.77
2024-04-04T18:21:52.227Z,100022.17
2024-04-04T18:24:18.906Z,100026.84
2024-04-04T18:26:45.995Z,100024.95
2024-04-04T18:29:12.794Z,100020.02
2024-04-04T18:31:40.180Z,100020.05
2024-04-04T18:34:07.036Z,100024.08
2024-04-04T18:36:34.514Z,100022.73
2024-04-04T18:39:01.464Z,100019.92
2024-04-04T18:41:28.707Z,100017.52
2024-04-04T18:43:55.367Z,100018.69
2024-04-04T18:46:22.086Z,100015.58
2024-04-04T18:48:48.902Z,100015.13
2024-04-04T18:51:15.837Z,100014.45
2024-04-04T18:53:42.435Z,100013.39
2024-04-04T18:56:09.028Z,100013.42
2024-04-04T18:58:36.788Z,100013.89
2024-04-04T19:01:03.909Z,100014.83
2024-04-04T19:03:33.805Z,100012.91
2024-04-04T19:06:09.490Z,100011.57
2024-04-04T19:08:37.890Z,100013.05
2024-04-04T19:11:04.756Z,100010.11
2024-04-04T19:13:31.459Z,100007.73
2024-04-04T19:16:00.132Z,100006.91
2024-04-04T19:18:28.606Z,100002.65
2024-04-04T19:20:59.654Z,99996.80
2024-04-04T19:23:28.863Z,99992.98
2024-04-04T19:25:58.242Z,99991.70
2024-04-04T19:28:26.123Z,99992.14
2024-04-04T19:30:59.091Z,99991.92
2024-04-04T19:33:26.354Z,99988.67
2024-04-04T19:35:56.855Z,99989.34
2024-04-04T19:38:25.313Z,99990.06
2024-04-04T19:40:52.670Z,99986.90
2024-04-04T19:43:21.210Z,99986.73
2024-04-04T19:45:59.883Z,99981.71
2024-04-04T19:48:28.423Z,99982.11
2024-04-04T19:51:00.584Z,99976.01
2024-04-04T19:53:28.712Z,99974.69
2024-04-04T19:55:55.609Z,99972.70
2024-04-04T19:58:22.364Z,99969.20
2024-04-04T20:00:57.281Z,99970.91
2024-04-04T20:03:24.773Z,99967.35
2024-04-04T20:05:54.659Z,99969.83
2024-04-04T20:08:22.564Z,99974.77
2024-04-04T20:10:49.253Z,99973.17
2024-04-04T20:13:16.014Z,99976.20
2024-04-04T20:15:43.987Z,99972.29
2024-04-04T20:18:13.352Z,99978.64
2024-04-04T20:20:42.261Z,99974.89
2024-04-04T20:23:09.052Z,99977.02
2024-04-04T20:25:36.893Z,99985.83
2024-04-04T20:28:05.618Z,99985.27
2024-04-04T20:30:33.556Z,99992.01
2024-04-04T20:33:06.232Z,99989.87
2024-04-04T20:35:38.970Z,99991.13
2024-04-04T20:38:05.942Z,99989.86
2024-04-04T20:40:32.934Z,99988.44
2024-04-04T20:42:59.695Z,99994.00
2024-04-04T20:45:26.390Z,99993.42
2024-04-04T20:47:53.031Z,99990.19
2024-04-04T20:50:19.727Z,99989.84
2024-04-04T20:52:46.342Z,99994.52
2024-04-04T20:55:13.093Z,99993.49
2024-04-04T20:57:39.790Z,99993.77
2024-04-04T21:00:07.201Z,99997.10
2024-04-04T21:02:33.932Z,99994.52
2024-04-04T21:05:00.779Z,99994.58
2024-04-04T21:07:27.654Z,99994.05
2024-04-04T21:09:54.921Z,99994.40
2024-04-04T21:12:21.636Z,99994.20
2024-04-04T21:14:48.856Z,99990.51
2024-04-04T21:17:15.806Z,99985.78
2024-04-04T21:19:51.817Z,99987.38
2024-04-04T21:22:23.015Z,99985.54
2024-04-04T21:24:50.078Z,99988.98
2024-04-04T21:27:16.763Z,99990.55
2024-04-04T21:29:43.477Z,99993.29
2024-04-04T21:32:10.258Z,99983.86
2024-04-04T21:34:36.914Z,99984.14
2024-04-04T21:37:03.649Z,99981.92
2024-04-04T21:39:31.475Z,99981.08
2024-04-04T21:41:58.339Z,99978.75
2024-04-04T21:44:25.014Z,99978.36
2024-04-04T21:46:51.660Z,99978.16
2024-04-04T21:49:19.497Z,99976.31
2024-04-04T21:51:46.131Z,99969.98
2024-04-04T21:54:12.827Z,99970.29
2024-04-04T21:56:39.543Z,99968.85
2024-04-04T21:59:08.378Z,99963.79
2024-04-04T22:01:34.987Z,99957.58
2024-04-04T22:04:01.787Z,99959.61
2024-04-04T22:06:28.468Z,99959.14
2024-04-04T22:08:55.075Z,99955.10
2024-04-04T22:11:21.822Z,99948.06
2024-04-04T22:13:48.485Z,99943.67
2024-04-04T22:16:15.327Z,99945.71
2024-04-04T22:18:42.190Z,99940.36
2024-04-04T22:21:08.881Z,99937.50
2024-04-04T22:23:35.592Z,99938.00
2024-04-04T22:26:06.757Z,99938.36
2024-04-04T22:28:33.670Z,99936.87
2024-04-04T22:31:02.233Z,99938.67
2024-04-04T22:33:29.905Z,99940.05
2024-04-04T22:35:56.835Z,99942.95
2024-04-04T22:38:24.241Z,99945.90
2024-04-04T22:40:51.798Z,99947.52
2024-04-04T22:43:22.300Z,99945.30
2024-04-04T22:45:54.076Z,99949.06
2024-04-04T22:48:21.807Z,99945.71
2024-04-04T22:50:48.712Z,99944.75
2024-04-04T22:53:15.509Z,99942.58
2024-04-04T22:55:42.187Z,99940.81
2024-04-04T22:58:08.808Z,99941.23
2024-04-04T23:00:35.565Z,99943.77
2024-04-04T23:03:02.283Z,99945.10
2024-04-04T23:05:28.986Z,99947.55
2024-04-04T23:07:55.899Z,99947.57
2024-04-04T23:10:22.537Z,99946.10
2024-04-04T23:12:50.053Z,99942.88
2024-04-04T23:15:17.769Z,99941.48
2024-04-04T23:17:44.569Z,99942.39
2024-04-04T23:20:11.327Z,99946.33
2024-04-04T23:22:38.484Z,99946.74
2024-04-04T23:25:06.054Z,99949.79
2024-04-04T23:27:33.458Z,99948.27
2024-04-04T23:30:00.459Z,99953.84
2024-04-04T23:32:27.485Z,99958.48
2024-04-04T23:34:54.147Z,99955.56
2024-04-04T23:37:20.848Z,99952.81
2024-04-04T23:39:47.488Z,99955.58
2024-04-04T23:42:14.531Z,99951.58
2024-04-04T23:44:41.220Z,99950.06
2024-04-04T23:47:08.331Z,99950.38
2024-04-04T23:49:34.956Z,99950.79
2024-04-04T23:52:01.875Z,99951.88
2024-04-04T23:54:28.754Z,99945.70
2024-04-04T23:56:55.787Z,99946.27
2024-04-04T23:59:22.400Z,99944.66
